createdAt,value
2023-04-10T00:00:06.973Z,82.41
2023-04-10T00:02:34.123Z,83.15
2023-04-10T00:05:01.707Z,82.43
2023-04-10T00:07:28.940Z,82.24
2023-04-10T00:09:56.027Z,82.47
2023-04-10T00:12:23.253Z,83.19
2023-04-10T00:14:50.674Z,83.37
2023-04-10T00:17:17.761Z,83.82
2023-04-10T00:19:44.918Z,83.81
2023-04-10T00:22:12.094Z,83.91
2023-04-10T00:24:39.235Z,84.15
2023-04-10T00:27:06.350Z,84.16
2023-04-10T00:29:33.538Z,84.21
2023-04-10T00:32:00.577Z,84.15
2023-04-10T00:34:27.765Z,83.59
2023-04-10T00:36:54.918Z,83.48
2023-04-10T00:39:21.995Z,82.99
2023-04-10T00:41:49.122Z,82.54
2023-04-10T00:44:16.510Z,82.49
2023-04-10T00:46:43.841Z,83.25
2023-04-10T00:49:11.405Z,83.00
2023-04-10T00:51:39.152Z,82.05
2023-04-10T00:54:06.829Z,83.53
2023-04-10T00:56:34.130Z,83.21
2023-04-10T00:59:05.160Z,83.08
2023-04-10T01:01:33.819Z,83.19
2023-04-10T01:04:01.372Z,83.76
2023-04-10T01:06:32.032Z,83.32
2023-04-10T01:09:34.377Z,83.92
2023-04-10T01:12:31.145Z,84.14
2023-04-10T01:15:13.224Z,83.42
2023-04-10T01:17:55.088Z,83.67
2023-04-10T01:20:36.072Z,82.87
2023-04-10T01:23:21.605Z,83.22
2023-04-10T01:25:48.672Z,83.89
2023-04-10T01:28:25.001Z,83.77
2023-04-10T01:30:58.552Z,83.82
2023-04-10T01:33:43.770Z,83.55
2023-04-10T01:36:11.846Z,82.44
2023-04-10T01:38:44.424Z,82.55
2023-04-10T01:41:12.946Z,81.86
2023-04-10T01:43:41.905Z,81.44
2023-04-10T01:46:10.362Z,81.34
2023-04-10T01:48:37.956Z,80.92
2023-04-10T01:51:08.606Z,80.84
2023-04-10T01:53:36.689Z,81.30
2023-04-10T01:56:05.005Z,80.49
2023-04-10T01:58:39.379Z,80.98
2023-04-10T02:01:07.633Z,80.69
2023-04-10T02:03:35.629Z,80.86
2023-04-10T02:06:18.672Z,80.43
2023-04-10T02:09:21.399Z,80.47
2023-04-10T02:11:56.002Z,80.45
2023-04-10T02:14:28.721Z,80.16
2023-04-10T02:16:56.768Z,80.86
2023-04-10T02:19:25.877Z,80.71
2023-04-10T02:21:53.876Z,80.92
2023-04-10T02:24:21.424Z,81.65
2023-04-10T02:26:50.143Z,81.15
2023-04-10T02:29:18.029Z,81.35
2023-04-10T02:31:46.439Z,81.77
2023-04-10T02:34:14.617Z,81.87
2023-04-10T02:36:42.141Z,82.30
2023-04-10T02:39:11.669Z,81.93
2023-04-10T02:41:47.694Z,81.74
2023-04-10T02:44:15.036Z,81.46
2023-04-10T02:46:43.017Z,81.77
2023-04-10T02:49:11.505Z,81.02
2023-04-10T02:51:38.726Z,80.96
2023-04-10T02:54:06.207Z,81.05
2023-04-10T02:56:35.252Z,80.75
2023-04-10T02:59:02.676Z,80.57
2023-04-10T03:01:31.337Z,80.33
2023-04-10T03:03:59.542Z,80.20
2023-04-10T03:06:33.550Z,80.26
2023-04-10T03:09:00.978Z,79.79
2023-04-10T03:11:28.323Z,79.78
2023-04-10T03:13:56.222Z,80.27
2023-04-10T03:16:23.477Z,80.04
2023-04-10T03:18:50.682Z,80.38
2023-04-10T03:21:17.860Z,80.12
2023-04-10T03:23:44.972Z,80.10
2023-04-10T03:26:12.107Z,79.54
2023-04-10T03:28:39.940Z,79.49
2023-04-10T03:31:10.884Z,79.44
2023-04-10T03:33:39.288Z,79.17
2023-04-10T03:36:07.202Z,78.72
2023-04-10T03:38:34.272Z,79.12
2023-04-10T03:41:01.401Z,79.22
2023-04-10T03:43:34.020Z,78.91
2023-04-10T03:46:03.208Z,78.80
2023-04-10T03:48:30.821Z,78.47
2023-04-10T03:50:58.469Z,78.39
2023-04-10T03:53:25.771Z,78.32
2023-04-10T03:55:54.471Z,77.94
2023-04-10T03:58:23.097Z,78.37
2023-04-10T04:00:51.757Z,78.00
2023-04-10T04:03:31.675Z,78.71
2023-04-10T04:06:28.144Z,79.14
2023-04-10T04:09:10.861Z,79.61
2023-04-10T04:12:04.090Z,80.05
2023-04-10T04:14:49.906Z,79.66
2023-04-10T04:17:37.393Z,79.40
2023-04-10T04:20:06.314Z,79.30
2023-04-10T04:23:11.935Z,79.46
2023-04-10T04:28:41.592Z,80.67
2023-04-10T04:31:22.376Z,81.06
2023-04-10T04:34:07.886Z,81.12
2023-04-10T04:36:53.438Z,81.65
2023-04-10T04:39:40.870Z,81.32
2023-04-10T04:42:20.767Z,81.16
2023-04-10T04:45:01.085Z,81.24
2023-04-10T04:47:28.166Z,81.45
2023-04-10T04:50:07.390Z,80.89
2023-04-10T04:52:49.710Z,81.00
2023-04-10T04:55:35.719Z,80.74
2023-04-10T04:58:41.020Z,80.41
2023-04-10T05:01:17.001Z,80.50
2023-04-10T05:03:58.346Z,80.14
2023-04-10T05:06:38.798Z,80.51
2023-04-10T05:09:17.472Z,80.77
2023-04-10T05:12:01.760Z,80.67
2023-04-10T05:14:49.157Z,80.36
2023-04-10T05:17:42.375Z,81.02
2023-04-10T05:20:41.853Z,80.78
2023-04-10T05:23:25.101Z,80.34
2023-04-10T05:26:06.831Z,80.55
2023-04-10T05:28:57.109Z,80.44
2023-04-10T05:31:24.273Z,80.38
2023-04-10T05:34:08.862Z,80.02
2023-04-10T05:36:59.229Z,79.71
2023-04-10T05:40:05.697Z,80.00
2023-04-10T05:42:51.361Z,79.20
2023-04-10T05:45:31.071Z,79.05
2023-04-10T05:47:58.167Z,78.77
2023-04-10T05:50:44.027Z,78.68
2023-04-10T05:53:37.235Z,78.38
2023-04-10T05:56:24.553Z,78.47
2023-04-10T05:59:17.738Z,77.71
2023-04-10T06:02:14.062Z,77.77
2023-04-10T06:04:41.522Z,77.24
2023-04-10T06:07:08.795Z,77.70
2023-04-10T06:09:36.011Z,77.98
2023-04-10T06:12:06.166Z,77.70
2023-04-10T06:14:33.591Z,77.91
2023-04-10T06:17:01.362Z,77.89
2023-04-10T06:19:28.762Z,77.76
2023-04-10T06:21:56.793Z,77.14
2023-04-10T06:24:24.206Z,77.44
2023-04-10T06:26:52.029Z,77.41
2023-04-10T06:29:19.284Z,77.70
2023-04-10T06:31:46.746Z,76.81
2023-04-10T06:34:13.932Z,76.65
2023-04-10T06:36:52.146Z,77.09
2023-04-10T06:39:20.441Z,76.85
2023-04-10T06:41:48.310Z,76.52
2023-04-10T06:44:28.537Z,77.29
2023-04-10T06:46:55.828Z,77.89
2023-04-10T06:49:23.304Z,77.18
2023-04-10T06:51:50.716Z,77.48
2023-04-10T06:54:18.550Z,76.50
2023-04-10T06:56:45.677Z,76.69
2023-04-10T06:59:12.749Z,77.15
2023-04-10T07:01:40.002Z,77.60
2023-04-10T07:04:07.382Z,76.95
2023-04-10T07:06:34.575Z,76.32
2023-04-10T07:09:01.711Z,75.62
2023-04-10T07:11:28.852Z,75.50
2023-04-10T07:13:58.720Z,74.82
2023-04-10T07:16:26.175Z,74.28
2023-04-10T07:18:53.523Z,74.17
2023-04-10T07:21:21.591Z,73.63
2023-04-10T07:23:48.804Z,72.94
2023-04-10T07:26:16.029Z,72.62
2023-04-10T07:28:43.408Z,72.69
2023-04-10T07:31:11.650Z,72.50
2023-04-10T07:33:39.103Z,72.02
2023-04-10T07:36:07.218Z,72.11
2023-04-10T07:38:34.565Z,71.63
2023-04-10T07:41:01.703Z,71.62
2023-04-10T07:43:28.820Z,70.95
2023-04-10T07:45:56.577Z,71.47
2023-04-10T07:48:23.993Z,71.98
2023-04-10T07:50:51.432Z,71.27
2023-04-10T07:53:18.770Z,70.09
2023-04-10T07:55:49.426Z,69.44
2023-04-10T07:58:16.744Z,69.00
2023-04-10T08:00:43.918Z,69.20
2023-04-10T08:03:13.457Z,67.77
2023-04-10T08:05:40.818Z,66.75
2023-04-10T08:08:08.150Z,66.07
2023-04-10T08:10:39.576Z,65.90
2023-04-10T08:13:06.912Z,66.86
2023-04-10T08:15:34.010Z,66.68
2023-04-10T08:18:01.185Z,65.97
2023-04-10T08:20:28.746Z,65.49
2023-04-10T08:22:58.938Z,64.85
2023-04-10T08:25:31.450Z,64.18
2023-04-10T08:28:00.664Z,64.18
2023-04-10T08:30:27.803Z,63.53
2023-04-10T08:32:54.916Z,63.71
2023-04-10T08:35:22.061Z,63.65
2023-04-10T08:37:50.051Z,63.74
2023-04-10T08:40:29.535Z,63.88
2023-04-10T08:42:56.667Z,63.32
2023-04-10T08:45:23.792Z,62.62
2023-04-10T08:47:53.580Z,62.28
2023-04-10T08:50:21.877Z,62.36
2023-04-10T08:52:53.072Z,62.58
2023-04-10T08:55:21.784Z,62.85
2023-04-10T08:57:57.994Z,63.49
2023-04-10T09:00:29.188Z,63.40
2023-04-10T09:02:58.640Z,62.15
2023-04-10T09:05:29.500Z,62.07
2023-04-10T09:07:57.248Z,61.42
2023-04-10T09:10:24.395Z,61.42
2023-04-10T09:12:52.675Z,60.48
2023-04-10T09:15:20.935Z,60.36
2023-04-10T09:18:04.141Z,61.01
2023-04-10T09:20:33.450Z,60.93
2023-04-10T09:23:02.004Z,62.09
2023-04-10T09:25:34.606Z,61.84
2023-04-10T09:28:10.850Z,62.00
2023-04-10T09:30:40.355Z,61.47
2023-04-10T09:33:36.345Z,61.04
2023-04-10T09:36:04.473Z,60.64
2023-04-10T09:38:31.571Z,61.01
2023-04-10T09:41:08.105Z,61.46
2023-04-10T09:43:35.810Z,61.32
2023-04-10T09:46:02.837Z,60.68
2023-04-10T09:48:29.841Z,60.34
2023-04-10T09:50:59.373Z,60.92
2023-04-10T09:53:29.186Z,60.54
2023-04-10T09:55:57.395Z,60.76
2023-04-10T09:58:25.554Z,61.31
2023-04-10T10:00:53.319Z,60.40
2023-04-10T10:04:48.738Z,60.72
2023-04-10T10:07:17.204Z,60.24
2023-04-10T10:09:46.317Z,60.72
2023-04-10T10:12:18.060Z,60.55
2023-04-10T10:15:01.439Z,60.77
2023-04-10T10:17:34.855Z,62.10
2023-04-10T10:20:05.912Z,62.44
2023-04-10T10:22:33.313Z,63.01
2023-04-10T10:25:02.089Z,62.84
2023-04-10T10:27:32.776Z,61.16
2023-04-10T10:30:03.051Z,61.83
2023-04-10T10:32:35.933Z,60.19
2023-04-10T10:35:08.079Z,59.18
2023-04-10T10:37:36.050Z,59.40
2023-04-10T10:40:25.197Z,58.01
2023-04-10T10:42:58.619Z,59.62
2023-04-10T10:45:38.103Z,58.33
2023-04-10T10:48:07.078Z,56.94
2023-04-10T10:50:59.173Z,57.76
2023-04-10T10:53:40.632Z,57.44
2023-04-10T10:56:19.871Z,57.07
2023-04-10T10:58:48.101Z,56.43
2023-04-10T11:01:16.357Z,57.72
2023-04-10T11:03:47.251Z,57.71
2023-04-10T11:06:19.813Z,58.74
2023-04-10T11:08:55.156Z,58.85
2023-04-10T11:11:27.609Z,58.21
2023-04-10T11:13:57.803Z,56.95
2023-04-10T11:16:42.166Z,56.62
2023-04-10T11:19:15.890Z,55.40
2023-04-10T11:22:05.955Z,55.54
2023-04-10T11:24:56.492Z,55.56
2023-04-10T11:27:39.564Z,55.27
2023-04-10T11:30:29.341Z,55.44
2023-04-10T11:32:57.074Z,54.30
2023-04-10T11:35:25.991Z,53.92
2023-04-10T11:37:53.220Z,53.91
2023-04-10T11:40:20.649Z,53.64
2023-04-10T11:42:48.496Z,54.03
2023-04-10T11:45:26.818Z,53.68
2023-04-10T11:47:55.201Z,53.43
2023-04-10T11:50:22.472Z,53.43
2023-04-10T11:52:54.668Z,53.46
2023-04-10T11:55:38.097Z,52.41
2023-04-10T11:58:05.216Z,51.99
2023-04-10T12:00:32.442Z,51.84
2023-04-10T12:02:59.782Z,51.55
2023-04-10T12:05:27.232Z,51.90
2023-04-10T12:07:55.949Z,51.37
2023-04-10T12:10:23.012Z,51.67
2023-04-10T12:12:50.376Z,52.59
2023-04-10T12:15:27.745Z,52.44
2023-04-10T12:17:55.851Z,51.96
2023-04-10T12:20:26.825Z,51.88
2023-04-10T12:22:57.007Z,50.88
2023-04-10T12:25:24.396Z,51.82
2023-04-10T12:27:51.997Z,51.74
2023-04-10T12:30:19.287Z,52.34
2023-04-10T12:32:55.132Z,53.35
2023-04-10T12:35:38.933Z,54.34
2023-04-10T12:38:06.260Z,54.99
2023-04-10T12:40:33.446Z,55.28
2023-04-10T12:43:00.501Z,55.68
2023-04-10T12:45:44.081Z,54.63
2023-04-10T12:48:11.398Z,53.11
2023-04-10T12:50:48.492Z,53.85
2023-04-10T12:53:15.978Z,54.31
2023-04-10T12:56:06.617Z,52.40
2023-04-10T12:58:33.905Z,53.12
2023-04-10T13:01:06.466Z,52.75
2023-04-10T13:03:38.247Z,51.74
2023-04-10T13:06:07.616Z,49.91
2023-04-10T13:08:35.760Z,49.58
2023-04-10T13:11:03.865Z,49.95
2023-04-10T13:13:33.026Z,49.69
2023-04-10T13:16:00.668Z,50.66
2023-04-10T13:18:27.950Z,51.19
2023-04-10T13:20:55.058Z,50.83
2023-04-10T13:23:22.283Z,50.60
2023-04-10T13:25:49.526Z,50.71
2023-04-10T13:28:19.027Z,51.30
2023-04-10T13:30:46.044Z,50.64
2023-04-10T13:33:13.211Z,51.37
2023-04-10T13:35:40.629Z,51.94
2023-04-10T13:38:09.524Z,52.72
2023-04-10T13:40:36.914Z,52.37
2023-04-10T13:43:04.435Z,51.48
2023-04-10T13:45:31.505Z,52.33
2023-04-10T13:47:58.597Z,52.07
2023-04-10T13:50:25.784Z,53.04
2023-04-10T13:52:53.854Z,51.23
2023-04-10T13:55:21.139Z,50.41
2023-04-10T13:57:48.202Z,51.11
2023-04-10T14:00:15.872Z,51.79
2023-04-10T14:02:43.661Z,52.01
2023-04-10T14:05:11.012Z,51.34
2023-04-10T14:07:38.127Z,51.04
2023-04-10T14:10:05.862Z,52.12
2023-04-10T14:12:32.935Z,52.02
2023-04-10T14:15:00.293Z,51.11
2023-04-10T14:17:28.300Z,51.61
2023-04-10T14:19:55.872Z,51.33
2023-04-10T14:22:23.176Z,51.05
2023-04-10T14:24:52.584Z,50.31
2023-04-10T14:27:23.561Z,50.54
2023-04-10T14:29:54.698Z,51.64
2023-04-10T14:32:22.780Z,51.42
2023-04-10T14:34:50.081Z,51.27
2023-04-10T14:37:19.285Z,50.60
2023-04-10T14:39:46.529Z,50.43
2023-04-10T14:42:13.790Z,49.50
2023-04-10T14:44:40.897Z,49.44
2023-04-10T14:47:08.275Z,49.98
2023-04-10T14:49:35.378Z,50.86
2023-04-10T14:52:02.408Z,49.98
2023-04-10T14:54:29.567Z,50.17
2023-04-10T14:56:58.498Z,49.98
2023-04-10T14:59:25.646Z,50.08
2023-04-10T15:01:54.253Z,50.62
2023-04-10T15:04:21.617Z,51.85
2023-04-10T15:06:48.863Z,52.50
2023-04-10T15:09:16.080Z,52.99
2023-04-10T15:11:43.149Z,53.27
2023-04-10T15:14:12.379Z,52.76
2023-04-10T15:16:39.628Z,53.47
2023-04-10T15:19:06.799Z,53.17
2023-04-10T15:21:34.378Z,52.95
2023-04-10T15:24:01.544Z,52.96
2023-04-10T15:26:28.642Z,52.50
2023-04-10T15:28:55.706Z,52.81
2023-04-10T15:31:24.325Z,53.18
2023-04-10T15:33:52.600Z,53.14
2023-04-10T15:36:19.967Z,53.15
2023-04-10T15:38:49.939Z,52.14
2023-04-10T15:41:17.617Z,52.48
2023-04-10T15:43:46.210Z,53.04
2023-04-10T15:46:14.318Z,53.29
2023-04-10T15:48:41.607Z,53.02
2023-04-10T15:51:08.893Z,53.55
2023-04-10T15:53:36.283Z,53.38
2023-04-10T15:56:07.581Z,53.26
2023-04-10T15:58:35.205Z,53.94
2023-04-10T16:01:02.525Z,53.57
2023-04-10T16:03:30.646Z,54.13
2023-04-10T16:05:58.605Z,53.66
2023-04-10T16:08:26.565Z,54.53
2023-04-10T16:10:54.422Z,54.46
2023-04-10T16:13:21.669Z,54.78
2023-04-10T16:15:49.707Z,54.56
2023-04-10T16:18:16.848Z,55.37
2023-04-10T16:20:44.153Z,55.37
2023-04-10T16:23:11.698Z,56.23
2023-04-10T16:25:38.883Z,56.23
2023-04-10T16:28:08.409Z,56.88
2023-04-10T16:30:36.477Z,57.28
2023-04-10T16:33:04.474Z,57.46
2023-04-10T16:35:31.844Z,57.75
2023-04-10T16:37:59.216Z,57.99
2023-04-10T16:40:32.810Z,57.95
2023-04-10T16:43:01.210Z,58.72
2023-04-10T16:45:28.304Z,59.22
2023-04-10T16:47:55.835Z,59.58
2023-04-10T16:50:23.229Z,60.29
2023-04-10T16:52:50.553Z,60.43
2023-04-10T16:55:17.765Z,61.08
2023-04-10T16:57:44.958Z,61.20
2023-04-10T17:00:12.462Z,61.97
2023-04-10T17:02:39.548Z,62.34
2023-04-10T17:05:06.904Z,62.91
2023-04-10T17:07:34.343Z,63.46
2023-04-10T17:10:01.722Z,63.49
2023-04-10T17:12:28.961Z,63.71
2023-04-10T17:14:56.376Z,64.27
2023-04-10T17:17:23.861Z,65.09
2023-04-10T17:19:51.142Z,65.00
2023-04-10T17:22:18.303Z,65.39
2023-04-10T17:24:46.630Z,65.90
2023-04-10T17:27:14.450Z,66.34
2023-04-10T17:29:41.977Z,66.91
2023-04-10T17:32:10.814Z,67.24
2023-04-10T17:34:38.775Z,67.97
2023-04-10T17:37:05.927Z,68.06
2023-04-10T17:39:33.267Z,68.40
2023-04-10T17:42:00.845Z,68.40
2023-04-10T17:44:28.061Z,68.80
2023-04-10T17:46:55.446Z,68.76
2023-04-10T17:49:23.037Z,69.63
2023-04-10T17:51:50.409Z,70.10
2023-04-10T17:54:17.731Z,70.21
2023-04-10T17:56:45.077Z,70.21
2023-04-10T17:59:12.360Z,70.40
2023-04-10T18:01:39.973Z,71.08
2023-04-10T18:04:07.580Z,71.07
2023-04-10T18:06:35.420Z,71.42
2023-04-10T18:09:02.764Z,71.59
2023-04-10T18:11:30.125Z,71.95
2023-04-10T18:13:57.316Z,72.10
2023-04-10T18:16:24.665Z,71.87
2023-04-10T18:18:52.212Z,72.44
2023-04-10T18:21:19.633Z,72.58
2023-04-10T18:23:46.763Z,72.58
2023-04-10T18:26:14.235Z,73.06
2023-04-10T18:28:43.407Z,72.85
2023-04-10T18:31:12.797Z,72.89
2023-04-10T18:33:39.971Z,73.80
2023-04-10T18:36:07.697Z,74.32
2023-04-10T18:38:35.114Z,74.42
2023-04-10T18:41:02.298Z,74.00
2023-04-10T18:43:29.620Z,74.65
2023-04-10T18:45:57.762Z,74.80
2023-04-10T18:48:24.986Z,74.85
2023-04-10T18:50:53.510Z,75.17
2023-04-10T18:53:21.553Z,75.72
2023-04-10T18:55:50.966Z,75.48
2023-04-10T18:58:19.398Z,76.18
2023-04-10T19:00:46.601Z,76.20
2023-04-10T19:03:14.533Z,75.91
2023-04-10T19:05:43.470Z,76.03
2023-04-10T19:08:16.910Z,75.84
2023-04-10T19:10:44.077Z,75.59
2023-04-10T19:13:12.869Z,75.69
2023-04-10T19:15:44.815Z,75.52
2023-04-10T19:18:14.824Z,75.63
2023-04-10T19:20:50.892Z,75.45
2023-04-10T19:23:21.173Z,75.82
2023-04-10T19:25:55.072Z,75.81
2023-04-10T19:28:26.426Z,76.56
2023-04-10T19:30:57.764Z,76.57
2023-04-10T19:33:25.650Z,76.16
2023-04-10T19:35:52.918Z,76.15
2023-04-10T19:38:20.195Z,76.04
2023-04-10T19:40:47.629Z,76.63
2023-04-10T19:43:14.882Z,76.76
2023-04-10T19:45:42.235Z,76.38
2023-04-10T19:48:10.023Z,76.54
2023-04-10T19:50:37.125Z,76.08
2023-04-10T19:53:04.701Z,76.34
2023-04-10T19:55:31.842Z,76.42
2023-04-10T19:57:59.209Z,76.56
2023-04-10T20:00:26.422Z,76.83
2023-04-10T20:02:54.017Z,76.93
2023-04-10T20:05:21.503Z,77.22
2023-04-10T20:07:48.651Z,76.85
2023-04-10T20:10:15.752Z,77.32
2023-04-10T20:12:42.821Z,77.10
2023-04-10T20:15:10.510Z,77.92
2023-04-10T20:17:38.851Z,77.67
2023-04-10T20:20:06.587Z,78.28
2023-04-10T20:22:33.780Z,78.17
2023-04-10T20:25:00.893Z,78.19
2023-04-10T20:27:28.009Z,78.49
2023-04-10T20:29:55.072Z,78.02
2023-04-10T20:32:22.247Z,78.88
2023-04-10T20:34:49.388Z,78.75
2023-04-10T20:37:21.907Z,79.33
2023-04-10T20:39:49.491Z,79.34
2023-04-10T20:42:17.377Z,79.36
2023-04-10T20:44:44.718Z,79.48
2023-04-10T20:47:12.029Z,79.72
2023-04-10T20:49:39.323Z,79.69
2023-04-10T20:52:07.343Z,79.80
2023-04-10T20:54:34.586Z,80.05
2023-04-10T20:57:02.046Z,80.14
2023-04-10T20:59:29.752Z,79.95
2023-04-10T21:01:57.113Z,80.27
2023-04-10T21:04:24.312Z,80.01
2023-04-10T21:06:51.523Z,80.24
2023-04-10T21:09:18.847Z,81.10
2023-04-10T21:11:46.235Z,80.82
2023-04-10T21:14:13.860Z,81.20
2023-04-10T21:16:42.750Z,81.75
2023-04-10T21:19:10.038Z,81.27
2023-04-10T21:21:37.359Z,81.65
2023-04-10T21:24:04.946Z,81.78
2023-04-10T21:26:32.118Z,81.90
2023-04-10T21:28:59.202Z,82.12
2023-04-10T21:31:26.475Z,82.28
2023-04-10T21:33:53.661Z,82.43
2023-04-10T21:36:21.029Z,83.47
2023-04-10T21:38:48.082Z,83.69
2023-04-10T21:41:15.658Z,84.30
2023-04-10T21:43:43.356Z,83.98
2023-04-10T21:46:11.127Z,84.43
2023-04-10T21:48:38.343Z,84.22
2023-04-10T21:51:05.995Z,84.35
2023-04-10T21:53:33.103Z,84.41
2023-04-10T21:56:00.125Z,84.18
2023-04-10T21:58:27.148Z,83.97
2023-04-10T22:00:54.747Z,83.65
2023-04-10T22:03:22.458Z,84.19
2023-04-10T22:05:50.733Z,83.99
2023-04-10T22:08:20.148Z,83.35
2023-04-10T22:10:48.250Z,84.03
2023-04-10T22:13:27.478Z,84.18
2023-04-10T22:15:58.302Z,83.89
2023-04-10T22:18:25.393Z,83.61
2023-04-10T22:20:52.496Z,83.84
2023-04-10T22:23:19.635Z,84.30
2023-04-10T22:25:47.733Z,83.98
2023-04-10T22:28:15.244Z,84.03
2023-04-10T22:30:42.349Z,84.36
2023-04-10T22:33:12.055Z,84.05
2023-04-10T22:35:39.266Z,84.23
2023-04-10T22:38:07.880Z,84.46
2023-04-10T22:40:35.191Z,84.28
2023-04-10T22:43:02.710Z,84.09
2023-04-10T22:45:30.782Z,84.36
2023-04-10T22:47:58.497Z,84.62
2023-04-10T22:50:26.295Z,84.75
2023-04-10T22:52:53.817Z,84.50
2023-04-10T22:55:21.348Z,84.30
2023-04-10T22:57:51.420Z,84.78
2023-04-10T23:00:20.105Z,84.62
2023-04-10T23:02:51.655Z,84.40
2023-04-10T23:05:19.646Z,84.28
2023-04-10T23:07:49.994Z,84.70
2023-04-10T23:10:17.321Z,85.06
2023-04-10T23:12:44.870Z,84.72
2023-04-10T23:15:15.798Z,84.72
2023-04-10T23:17:44.886Z,84.90
2023-04-10T23:20:12.843Z,85.29
2023-04-10T23:22:55.398Z,85.62
2023-04-10T23:25:23.167Z,85.66
2023-04-10T23:27:56.541Z,85.88
2023-04-10T23:30:24.049Z,86.28
2023-04-10T23:32:51.574Z,86.43
2023-04-10T23:35:21.908Z,86.42
2023-04-10T23:37:52.974Z,86.80
2023-04-10T23:40:21.800Z,86.39
2023-04-10T23:42:49.350Z,86.99
2023-04-10T23:45:16.962Z,87.23
2023-04-10T23:47:44.322Z,87.12
2023-04-10T23:50:11.661Z,86.76
2023-04-10T23:52:38.968Z,86.77
2023-04-10T23:55:06.836Z,86.40
2023-04-10T23:57:33.983Z,86.34
